Time;durP1;ratioP1;P1;durP2;ratioP2;P2;SDS_P1;SDS_P2;PMS_P1;PMS_P2;Temp;Humidity;BMP_temperature;BMP_pressure;BME280_temperature;BME280_humidity;BME280_pressure;Samples;Min_cycle;Max_cycle;Signal;HPM_P1;HPM_P2
2022/09/29 00:02:00;;;;;;;;;;;21.80;61.70;;;;;;5099498;28;19966;-44
2022/09/29 00:04:26;;;;;;;;;;;21.80;61.80;;;;;;5076991;28;19913;-44
2022/09/29 00:06:52;;;;;;;;;;;21.80;61.80;;;;;;5078100;28;20364;-45
2022/09/29 00:09:17;;;;;;;;;;;21.80;61.70;;;;;;5081816;28;20328;-42
2022/09/29 00:11:43;;;;;;;;;;;21.90;61.70;;;;;;5088640;28;19912;-39
2022/09/29 00:14:09;;;;;;;;;;;21.80;61.60;;;;;;5083800;28;19967;-40
2022/09/29 00:16:35;;;;;;;;;;;21.90;61.50;;;;;;5085086;28;19912;-40
2022/09/29 00:19:01;;;;;;;;;;;21.90;61.50;;;;;;5087818;28;19912;-41
2022/09/29 00:21:27;;;;;;;;;;;21.90;61.50;;;;;;5083081;28;19912;-40
2022/09/29 00:23:53;;;;;;;;;;;21.90;61.30;;;;;;5075825;28;19915;-42
2022/09/29 00:26:22;;;;;;;;;;;21.90;61.30;;;;;;5082869;28;19912;-43
2022/09/29 00:28:52;;;;;;;;;;;21.90;61.30;;;;;;5077903;28;19923;-41
2022/09/29 00:31:18;;;;;;;;;;;21.90;61.10;;;;;;5084639;28;19915;-40
2022/09/29 00:33:44;;;;;;;;;;;21.90;61.00;;;;;;5070718;28;19929;-41
2022/09/29 00:36:11;;;;;;;;;;;21.90;61.00;;;;;;5067087;28;20593;-42
2022/09/29 00:38:37;;;;;;;;;;;21.90;61.00;;;;;;5063304;28;19923;-42
2022/09/29 00:41:03;;;;;;;;;;;21.90;60.80;;;;;;5076787;28;20288;-41
2022/09/29 00:43:44;;;;;;;;;;;21.90;60.80;;;;;;5061967;28;19919;-40
2022/09/29 00:46:10;;;;;;;;;;;21.90;60.80;;;;;;5044648;28;20714;-42
2022/09/29 00:48:35;;;;;;;;;;;21.90;60.80;;;;;;5057021;28;19976;-45
2022/09/29 00:51:01;;;;;;;;;;;21.90;60.80;;;;;;5061554;28;19928;-44
2022/09/29 00:53:27;;;;;;;;;;;21.90;60.90;;;;;;5059133;28;19909;-45
2022/09/29 00:55:57;;;;;;;;;;;21.90;60.90;;;;;;5060878;28;20415;-44
2022/09/29 00:58:27;;;;;;;;;;;21.90;60.90;;;;;;5082471;28;19959;-43
2022/09/29 01:00:54;;;;;;;;;;;21.90;60.90;;;;;;5049700;28;19935;-38
2022/09/29 01:03:20;;;;;;;;;;;21.90;60.90;;;;;;5063983;28;19916;-47
2022/09/29 01:05:47;;;;;;;;;;;21.90;60.90;;;;;;5057040;28;19916;-44
2022/09/29 01:08:27;;;;;;;;;;;21.90;60.90;;;;;;5076290;28;19908;-47
2022/09/29 01:10:53;;;;;;;;;;;21.90;60.90;;;;;;5068505;28;19909;-47
2022/09/29 01:13:19;;;;;;;;;;;21.90;60.80;;;;;;5066215;28;20432;-43
2022/09/29 01:15:46;;;;;;;;;;;21.90;60.70;;;;;;5056251;28;20361;-39
2022/09/29 01:18:12;;;;;;;;;;;21.90;60.80;;;;;;5067622;28;20024;-46
2022/09/29 01:20:44;;;;;;;;;;;21.90;60.80;;;;;;5058839;28;19952;-46
2022/09/29 01:23:29;;;;;;;;;;;21.90;60.80;;;;;;5055063;28;20590;-46
2022/09/29 01:26:13;;;;;;;;;;;21.90;60.80;;;;;;5055951;28;19980;-47
2022/09/29 01:28:57;;;;;;;;;;;21.90;60.70;;;;;;5050845;28;19947;-46
2022/09/29 01:31:42;;;;;;;;;;;21.90;60.70;;;;;;5055829;28;22066;-43
2022/09/29 01:34:23;;;;;;;;;;;21.90;60.70;;;;;;5071422;28;19947;-41
2022/09/29 01:37:08;;;;;;;;;;;21.90;60.70;;;;;;5060565;28;19912;-52
2022/09/29 01:39:35;;;;;;;;;;;21.90;60.70;;;;;;5066414;28;19955;-52
2022/09/29 01:42:06;;;;;;;;;;;21.90;60.70;;;;;;5049025;28;19912;-51
2022/09/29 01:44:33;;;;;;;;;;;21.90;60.70;;;;;;5072122;28;19912;-52
2022/09/29 01:47:06;;;;;;;;;;;21.90;60.80;;;;;;5042833;28;19954;-48
2022/09/29 01:49:33;;;;;;;;;;;21.90;60.80;;;;;;5056070;28;19939;-47
2022/09/29 01:52:00;;;;;;;;;;;21.80;60.80;;;;;;5039805;28;19952;-47
2022/09/29 01:54:44;;;;;;;;;;;21.80;60.90;;;;;;5054527;28;20350;-47
2022/09/29 01:57:14;;;;;;;;;;;21.80;60.90;;;;;;5056216;28;19912;-51
2022/09/29 02:00:00;;;;;;;;;;;21.80;60.80;;;;;;5031074;28;19984;-47
2022/09/29 02:02:31;;;;;;;;;;;21.80;60.90;;;;;;5056841;28;19932;-50
2022/09/29 02:04:58;;;;;;;;;;;21.80;60.80;;;;;;5045565;28;19919;-50
2022/09/29 02:07:29;;;;;;;;;;;21.80;60.90;;;;;;5044063;28;19955;-49
2022/09/29 02:09:57;;;;;;;;;;;21.80;60.80;;;;;;5071179;28;20289;-47
2022/09/29 02:12:24;;;;;;;;;;;21.80;60.90;;;;;;5061866;28;19970;-49
2022/09/29 02:14:50;;;;;;;;;;;21.80;60.90;;;;;;5062337;28;19913;-50
2022/09/29 02:17:18;;;;;;;;;;;21.80;61.10;;;;;;5072014;28;20037;-49
2022/09/29 02:19:44;;;;;;;;;;;21.80;61.10;;;;;;5075819;28;19921;-48
2022/09/29 02:22:11;;;;;;;;;;;21.80;61.10;;;;;;5047239;28;19912;-49
2022/09/29 02:24:37;;;;;;;;;;;21.80;61.10;;;;;;5078536;28;19916;-51
2022/09/29 02:27:04;;;;;;;;;;;21.80;61.10;;;;;;5049395;28;19915;-48
2022/09/29 02:29:30;;;;;;;;;;;21.80;61.10;;;;;;5054061;28;19912;-47
2022/09/29 02:32:00;;;;;;;;;;;21.80;61.10;;;;;;5042375;28;19931;-47
2022/09/29 02:34:26;;;;;;;;;;;21.70;61.00;;;;;;5060520;28;19927;-46
2022/09/29 02:37:08;;;;;;;;;;;21.70;61.00;;;;;;5058026;28;19912;-45
2022/09/29 02:39:46;;;;;;;;;;;21.70;60.90;;;;;;5060818;28;19916;-46
2022/09/29 02:42:18;;;;;;;;;;;21.70;60.90;;;;;;5029463;28;20071;-45
2022/09/29 02:44:47;;;;;;;;;;;21.70;61.00;;;;;;5055140;28;19913;-45
2022/09/29 02:47:13;;;;;;;;;;;21.70;60.90;;;;;;5043916;28;19912;-45
2022/09/29 02:49:48;;;;;;;;;;;21.70;60.90;;;;;;5058738;28;19987;-48
2022/09/29 02:52:32;;;;;;;;;;;21.70;60.90;;;;;;5059867;28;19988;-47
2022/09/29 02:55:11;;;;;;;;;;;21.70;60.90;;;;;;5047017;28;19971;-51
2022/09/29 02:57:42;;;;;;;;;;;21.70;60.90;;;;;;5062441;28;19935;-45
2022/09/29 03:00:14;;;;;;;;;;;21.70;60.90;;;;;;5058096;28;19956;-49
2022/09/29 03:02:41;;;;;;;;;;;21.60;60.90;;;;;;5036679;28;19916;-44
2022/09/29 03:05:08;;;;;;;;;;;21.60;60.80;;;;;;5082172;28;19904;-46
2022/09/29 03:07:34;;;;;;;;;;;21.60;60.90;;;;;;5062773;28;19905;-48
2022/09/29 03:10:00;;;;;;;;;;;21.60;60.90;;;;;;5072319;28;19972;-50
2022/09/29 03:12:26;;;;;;;;;;;21.60;60.90;;;;;;5049826;28;19945;-48
2022/09/29 03:14:51;;;;;;;;;;;21.60;60.90;;;;;;5052744;28;19919;-48
2022/09/29 03:17:17;;;;;;;;;;;21.60;60.80;;;;;;5067179;28;19923;-46
2022/09/29 03:19:43;;;;;;;;;;;21.60;60.80;;;;;;5066789;28;19920;-46
2022/09/29 03:22:09;;;;;;;;;;;21.60;60.90;;;;;;5061808;28;19916;-50
2022/09/29 03:24:35;;;;;;;;;;;21.60;60.90;;;;;;5060248;28;20440;-47
2022/09/29 03:27:01;;;;;;;;;;;21.60;60.90;;;;;;5067018;28;20494;-46
2022/09/29 03:29:27;;;;;;;;;;;21.60;61.00;;;;;;5058184;28;20012;-48
2022/09/29 03:31:52;;;;;;;;;;;21.50;61.70;;;;;;5062446;28;19919;-47
2022/09/29 03:34:18;;;;;;;;;;;21.50;61.10;;;;;;5068949;28;19943;-48
2022/09/29 03:36:44;;;;;;;;;;;21.50;61.10;;;;;;5061376;28;19935;-53
2022/09/29 03:39:10;;;;;;;;;;;21.50;61.10;;;;;;5071678;28;19927;-51
2022/09/29 03:41:36;;;;;;;;;;;21.50;61.10;;;;;;5072477;28;19916;-46
2022/09/29 03:44:02;;;;;;;;;;;21.50;61.10;;;;;;5052183;28;20040;-51
2022/09/29 03:46:28;;;;;;;;;;;21.50;61.10;;;;;;5056287;28;19913;-50
2022/09/29 03:48:54;;;;;;;;;;;21.50;61.10;;;;;;5052642;28;19909;-48
2022/09/29 03:51:20;;;;;;;;;;;21.50;61.10;;;;;;5050921;28;19916;-52
2022/09/29 03:53:45;;;;;;;;;;;21.50;61.00;;;;;;5042414;28;19917;-54
2022/09/29 03:56:11;;;;;;;;;;;21.50;61.10;;;;;;5051748;28;19912;-54
2022/09/29 03:58:37;;;;;;;;;;;21.50;61.80;;;;;;5073750;28;19966;-52
2022/09/29 04:01:03;;;;;;;;;;;21.40;61.00;;;;;;5068236;28;19916;-52
2022/09/29 04:03:29;;;;;;;;;;;21.40;60.90;;;;;;5054939;28;19912;-53
2022/09/29 04:05:55;;;;;;;;;;;21.40;60.90;;;;;;5082406;28;19975;-54
2022/09/29 04:08:21;;;;;;;;;;;21.40;60.90;;;;;;5062513;28;19913;-54
2022/09/29 04:10:47;;;;;;;;;;;21.40;60.80;;;;;;5057685;28;19920;-54
2022/09/29 04:13:13;;;;;;;;;;;21.40;60.80;;;;;;5064949;28;20416;-53
2022/09/29 04:15:38;;;;;;;;;;;21.30;60.90;;;;;;5059490;28;19912;-53
2022/09/29 04:18:05;;;;;;;;;;;21.30;60.80;;;;;;5067331;28;19984;-55
2022/09/29 04:20:30;;;;;;;;;;;21.30;60.90;;;;;;5065101;28;19916;-52
2022/09/29 04:22:56;;;;;;;;;;;21.30;60.80;;;;;;5055971;28;19920;-52
2022/09/29 04:25:22;;;;;;;;;;;21.30;60.90;;;;;;5059098;28;19913;-53
2022/09/29 04:27:48;;;;;;;;;;;21.30;60.90;;;;;;5056085;28;20435;-52
2022/09/29 04:30:14;;;;;;;;;;;21.30;60.90;;;;;;5064465;28;20404;-50
2022/09/29 04:32:40;;;;;;;;;;;21.30;61.00;;;;;;5068788;28;19920;-52
2022/09/29 04:35:07;;;;;;;;;;;21.20;60.80;;;;;;5046760;28;19982;-50
2022/09/29 04:37:33;;;;;;;;;;;21.20;60.80;;;;;;5052522;28;19916;-53
2022/09/29 04:39:59;;;;;;;;;;;21.20;60.90;;;;;;5063655;28;19916;-54
2022/09/29 04:42:25;;;;;;;;;;;21.20;60.90;;;;;;5062482;28;19912;-54
2022/09/29 04:44:51;;;;;;;;;;;21.20;61.00;;;;;;5061469;28;19912;-52
2022/09/29 04:47:17;;;;;;;;;;;21.20;61.10;;;;;;5067926;28;19912;-51
2022/09/29 04:49:43;;;;;;;;;;;21.20;61.10;;;;;;5061894;28;19920;-46
2022/09/29 04:52:11;;;;;;;;;;;21.20;61.10;;;;;;5064881;28;19972;-46
2022/09/29 04:54:37;;;;;;;;;;;21.20;61.20;;;;;;5072523;28;19921;-47
2022/09/29 04:57:03;;;;;;;;;;;21.10;61.20;;;;;;5031349;28;19958;-46
2022/09/29 04:59:29;;;;;;;;;;;21.10;61.20;;;;;;5083074;28;19920;-47
2022/09/29 05:01:55;;;;;;;;;;;21.10;61.20;;;;;;5056104;28;20362;-52
2022/09/29 05:04:21;;;;;;;;;;;21.10;61.20;;;;;;5043165;28;19919;-50
2022/09/29 05:06:47;;;;;;;;;;;21.10;61.20;;;;;;5073783;28;20007;-50
2022/09/29 05:09:13;;;;;;;;;;;21.10;61.30;;;;;;5067434;28;19912;-53
2022/09/29 05:11:39;;;;;;;;;;;21.10;61.30;;;;;;5047949;28;19909;-51
2022/09/29 05:14:05;;;;;;;;;;;21.10;61.20;;;;;;5049830;28;19959;-48
2022/09/29 05:16:30;;;;;;;;;;;21.10;61.20;;;;;;5073862;28;19958;-51
2022/09/29 05:18:56;;;;;;;;;;;21.00;61.20;;;;;;5051267;28;19913;-46
2022/09/29 05:21:22;;;;;;;;;;;21.00;61.20;;;;;;5067889;28;19916;-49
2022/09/29 05:23:48;;;;;;;;;;;21.00;61.20;;;;;;5063350;28;19976;-48
2022/09/29 05:26:14;;;;;;;;;;;21.00;61.20;;;;;;5063102;28;19913;-52
2022/09/29 05:28:43;;;;;;;;;;;21.00;61.10;;;;;;5056018;28;20702;-51
2022/09/29 05:31:09;;;;;;;;;;;21.00;61.20;;;;;;5049833;28;19917;-53
2022/09/29 05:33:35;;;;;;;;;;;21.00;61.20;;;;;;5044463;28;19921;-52
2022/09/29 05:36:06;;;;;;;;;;;20.90;61.10;;;;;;5053064;28;19920;-53
2022/09/29 05:38:32;;;;;;;;;;;20.90;61.20;;;;;;5055153;28;19912;-53
2022/09/29 05:40:58;;;;;;;;;;;20.90;61.30;;;;;;5063936;28;19938;-54
2022/09/29 05:43:24;;;;;;;;;;;20.90;61.20;;;;;;5070563;28;19972;-51
2022/09/29 05:45:50;;;;;;;;;;;20.90;61.30;;;;;;5074507;28;19917;-52
2022/09/29 05:48:17;;;;;;;;;;;20.90;61.40;;;;;;5068850;28;19909;-54
2022/09/29 05:50:42;;;;;;;;;;;20.90;61.50;;;;;;5055245;28;19909;-53
2022/09/29 05:53:09;;;;;;;;;;;20.90;61.50;;;;;;5048597;28;19912;-52
2022/09/29 05:55:35;;;;;;;;;;;20.90;61.50;;;;;;5053434;28;20334;-51
2022/09/29 05:58:01;;;;;;;;;;;20.90;61.50;;;;;;5063749;28;19909;-49
2022/09/29 06:00:27;;;;;;;;;;;20.90;61.60;;;;;;5057335;28;20266;-47
2022/09/29 06:02:53;;;;;;;;;;;20.90;61.60;;;;;;5054896;28;20711;-52
2022/09/29 06:05:19;;;;;;;;;;;20.80;61.50;;;;;;5068365;28;20003;-50
2022/09/29 06:07:45;;;;;;;;;;;20.90;61.60;;;;;;5063088;28;19992;-49
2022/09/29 06:10:11;;;;;;;;;;;20.90;61.60;;;;;;5061805;28;19954;-47
2022/09/29 06:12:37;;;;;;;;;;;20.80;61.60;;;;;;5045699;28;19919;-48
2022/09/29 06:15:04;;;;;;;;;;;20.80;61.60;;;;;;5059740;28;19909;-47
2022/09/29 06:17:30;;;;;;;;;;;20.80;61.60;;;;;;5044947;28;19920;-48
2022/09/29 06:19:55;;;;;;;;;;;20.80;61.60;;;;;;5055875;28;19913;-47
2022/09/29 06:22:21;;;;;;;;;;;20.80;61.60;;;;;;5062137;28;19913;-48
2022/09/29 06:24:47;;;;;;;;;;;20.80;61.60;;;;;;5057009;28;20325;-51
2022/09/29 06:27:14;;;;;;;;;;;20.70;61.50;;;;;;5061283;28;19913;-50
2022/09/29 06:29:40;;;;;;;;;;;20.70;61.50;;;;;;5078562;28;19908;-48
2022/09/29 06:32:05;;;;;;;;;;;20.70;61.60;;;;;;5063238;28;20373;-50
2022/09/29 06:34:31;;;;;;;;;;;20.70;61.60;;;;;;5065104;28;19996;-50
2022/09/29 06:39:42;;;;;;;;;;;20.70;61.60;;;;;;5064612;28;19989;-50
2022/09/29 06:42:08;;;;;;;;;;;20.70;61.60;;;;;;5074372;28;19908;-49
2022/09/29 06:44:34;;;;;;;;;;;20.70;61.60;;;;;;5047748;28;19913;-51
2022/09/29 06:47:00;;;;;;;;;;;20.70;61.60;;;;;;5058139;28;19916;-52
2022/09/29 06:49:26;;;;;;;;;;;20.60;61.50;;;;;;5055830;28;19934;-50
2022/09/29 06:51:51;;;;;;;;;;;20.60;61.50;;;;;;5033436;28;19968;-53
2022/09/29 06:54:19;;;;;;;;;;;20.60;61.50;;;;;;5064252;28;20271;-54
2022/09/29 06:56:48;;;;;;;;;;;20.60;61.60;;;;;;5075931;28;20349;-53
2022/09/29 06:59:14;;;;;;;;;;;20.60;61.60;;;;;;5065794;28;19917;-53
2022/09/29 07:01:40;;;;;;;;;;;20.60;61.70;;;;;;5059405;28;19921;-49
2022/09/29 07:04:06;;;;;;;;;;;20.60;61.70;;;;;;5061574;28;19909;-48
2022/09/29 07:06:32;;;;;;;;;;;20.50;61.70;;;;;;5055771;28;19916;-50
2022/09/29 07:08:57;;;;;;;;;;;20.60;61.80;;;;;;5080307;28;20054;-48
2022/09/29 07:11:23;;;;;;;;;;;20.50;61.70;;;;;;5058373;28;19936;-52
2022/09/29 07:13:50;;;;;;;;;;;20.50;61.80;;;;;;5066450;28;19912;-46
2022/09/29 07:16:16;;;;;;;;;;;20.50;61.70;;;;;;5066069;28;19919;-48
2022/09/29 07:18:42;;;;;;;;;;;20.50;61.70;;;;;;5055245;28;20330;-53
2022/09/29 07:21:11;;;;;;;;;;;20.50;61.70;;;;;;5042712;28;19916;-50
2022/09/29 07:23:37;;;;;;;;;;;20.50;61.70;;;;;;5076286;28;19913;-48
2022/09/29 07:26:06;;;;;;;;;;;20.40;61.60;;;;;;5067596;28;19959;-50
2022/09/29 07:28:32;;;;;;;;;;;20.50;61.80;;;;;;5056816;28;19920;-48
2022/09/29 07:31:01;;;;;;;;;;;20.40;61.60;;;;;;5058930;28;19916;-47
2022/09/29 07:33:27;;;;;;;;;;;20.40;61.60;;;;;;5079337;28;19915;-48
2022/09/29 07:35:53;;;;;;;;;;;20.40;61.60;;;;;;5073501;28;19919;-48
2022/09/29 07:38:19;;;;;;;;;;;20.40;61.60;;;;;;5071385;28;19919;-48
2022/09/29 07:40:45;;;;;;;;;;;20.40;61.70;;;;;;5074278;28;19923;-49
2022/09/29 07:43:11;;;;;;;;;;;20.40;61.70;;;;;;5087373;28;19935;-50
2022/09/29 07:45:37;;;;;;;;;;;20.40;61.70;;;;;;5081669;28;19912;-49
2022/09/29 07:48:03;;;;;;;;;;;20.40;61.70;;;;;;5085025;28;20027;-51
2022/09/29 07:50:28;;;;;;;;;;;20.30;61.60;;;;;;5079320;28;19917;-48
2022/09/29 07:52:55;;;;;;;;;;;20.30;61.70;;;;;;5072932;28;19908;-48
2022/09/29 07:55:22;;;;;;;;;;;20.30;61.70;;;;;;5075475;28;19912;-49
2022/09/29 07:57:48;;;;;;;;;;;20.30;61.70;;;;;;5076432;28;19920;-46
2022/09/29 08:00:16;;;;;;;;;;;20.30;61.80;;;;;;5073707;28;19920;-47
2022/09/29 08:02:42;;;;;;;;;;;20.30;61.90;;;;;;5084597;28;19934;-45
2022/09/29 08:05:08;;;;;;;;;;;20.30;62.00;;;;;;5065499;28;19935;-48
2022/09/29 08:07:34;;;;;;;;;;;20.30;62.70;;;;;;5098101;28;19911;-50
2022/09/29 08:10:00;;;;;;;;;;;20.20;61.90;;;;;;5105903;28;19998;-48
2022/09/29 08:12:26;;;;;;;;;;;20.20;61.80;;;;;;5073416;28;19913;-49
2022/09/29 08:14:52;;;;;;;;;;;20.20;61.80;;;;;;5087578;28;19912;-54
2022/09/29 08:17:17;;;;;;;;;;;20.20;61.80;;;;;;5092456;28;19912;-53
2022/09/29 08:19:43;;;;;;;;;;;20.20;61.80;;;;;;5073931;28;19920;-52
2022/09/29 08:22:09;;;;;;;;;;;20.20;61.90;;;;;;5084172;28;19963;-49
2022/09/29 08:24:39;;;;;;;;;;;20.20;62.10;;;;;;5086749;28;19912;-47
2022/09/29 08:27:05;;;;;;;;;;;20.20;62.10;;;;;;5084721;28;19951;-48
2022/09/29 08:29:32;;;;;;;;;;;20.20;62.20;;;;;;5089473;28;19935;-53
2022/09/29 08:31:58;;;;;;;;;;;20.20;62.30;;;;;;5087962;28;19941;-47
2022/09/29 08:34:23;;;;;;;;;;;20.20;62.60;;;;;;5073911;28;19924;-46
2022/09/29 08:36:50;;;;;;;;;;;20.20;62.70;;;;;;5064560;28;20244;-48
2022/09/29 08:39:18;;;;;;;;;;;20.20;62.80;;;;;;5050782;28;19912;-47
2022/09/29 08:41:56;;;;;;;;;;;20.20;63.00;;;;;;5058179;28;21693;-47
2022/09/29 08:44:24;;;;;;;;;;;20.20;63.10;;;;;;5057875;28;19931;-48
2022/09/29 08:46:54;;;;;;;;;;;20.20;63.10;;;;;;5053697;28;19909;-46
2022/09/29 08:49:23;;;;;;;;;;;20.10;62.90;;;;;;5066942;28;19916;-46
2022/09/29 08:51:53;;;;;;;;;;;20.10;62.80;;;;;;5056589;28;19920;-46
2022/09/29 08:54:18;;;;;;;;;;;20.10;62.80;;;;;;5058636;28;19927;-49
2022/09/29 08:56:44;;;;;;;;;;;20.10;62.70;;;;;;5057402;28;19980;-46
2022/09/29 08:59:10;;;;;;;;;;;20.10;62.60;;;;;;5055359;28;19917;-48
2022/09/29 09:01:48;;;;;;;;;;;20.10;62.60;;;;;;5039001;28;19934;-47
2022/09/29 09:04:17;;;;;;;;;;;20.10;62.60;;;;;;5056212;28;19912;-47
2022/09/29 09:06:53;;;;;;;;;;;20.10;62.50;;;;;;5046333;28;19946;-45
2022/09/29 09:09:22;;;;;;;;;;;20.10;62.50;;;;;;5055689;28;19913;-46
2022/09/29 09:12:04;;;;;;;;;;;20.00;62.40;;;;;;5062726;28;19913;-46
2022/09/29 09:14:29;;;;;;;;;;;20.00;62.40;;;;;;5044538;28;19928;-46
2022/09/29 09:16:58;;;;;;;;;;;20.00;62.40;;;;;;5049777;28;19913;-45
2022/09/29 09:19:28;;;;;;;;;;;20.00;62.40;;;;;;5046643;28;19916;-47
2022/09/29 09:22:12;;;;;;;;;;;20.00;62.30;;;;;;5062465;28;19913;-47
2022/09/29 09:24:47;;;;;;;;;;;20.00;62.30;;;;;;5062796;28;19947;-45
2022/09/29 09:27:18;;;;;;;;;;;20.00;62.30;;;;;;5046184;28;20454;-49
2022/09/29 09:29:44;;;;;;;;;;;20.00;62.30;;;;;;5050853;28;19919;-47
2022/09/29 09:32:11;;;;;;;;;;;20.00;62.20;;;;;;5049048;28;20031;-50
2022/09/29 09:34:40;;;;;;;;;;;20.00;62.20;;;;;;5046434;28;20033;-47
2022/09/29 09:37:19;;;;;;;;;;;20.00;62.20;;;;;;5063359;28;20289;-48
2022/09/29 09:39:48;;;;;;;;;;;20.00;62.20;;;;;;5046723;28;19981;-48
2022/09/29 09:42:17;;;;;;;;;;;20.00;62.20;;;;;;5062935;28;19908;-49
2022/09/29 09:44:51;;;;;;;;;;;19.90;62.10;;;;;;5044907;28;19912;-49
2022/09/29 09:47:17;;;;;;;;;;;19.90;62.10;;;;;;5043986;28;19920;-47
2022/09/29 09:49:43;;;;;;;;;;;19.90;62.10;;;;;;5054261;28;19908;-47
2022/09/29 09:52:10;;;;;;;;;;;19.90;62.10;;;;;;5055909;28;19935;-47
2022/09/29 09:54:59;;;;;;;;;;;19.90;62.00;;;;;;5049188;28;19904;-46
2022/09/29 09:57:25;;;;;;;;;;;19.90;62.00;;;;;;5049713;28;19912;-50
2022/09/29 09:59:56;;;;;;;;;;;19.90;62.00;;;;;;5075405;28;19936;-49
2022/09/29 10:02:23;;;;;;;;;;;19.80;61.90;;;;;;5043290;28;20003;-48
2022/09/29 10:04:50;;;;;;;;;;;19.80;61.90;;;;;;5048700;28;19988;-48
2022/09/29 10:07:16;;;;;;;;;;;19.80;61.90;;;;;;5047013;28;19912;-45
2022/09/29 10:09:42;;;;;;;;;;;19.80;61.90;;;;;;5044806;28;19908;-50
2022/09/29 10:12:11;;;;;;;;;;;19.80;61.90;;;;;;5062874;28;19913;-46
2022/09/29 10:14:37;;;;;;;;;;;19.80;61.90;;;;;;5062536;28;19967;-46
2022/09/29 10:17:06;;;;;;;;;;;19.80;61.80;;;;;;5054012;28;20639;-44
2022/09/29 10:19:50;;;;;;;;;;;19.80;61.80;;;;;;5038999;28;19916;-47
2022/09/29 10:22:17;;;;;;;;;;;19.80;61.80;;;;;;5053449;28;19938;-46
2022/09/29 10:24:43;;;;;;;;;;;19.80;61.80;;;;;;5044021;28;20620;-43
2022/09/29 10:27:10;;;;;;;;;;;19.80;61.90;;;;;;5061711;28;19909;-45
2022/09/29 10:29:36;;;;;;;;;;;19.70;61.80;;;;;;5055555;28;19913;-44
2022/09/29 10:32:08;;;;;;;;;;;19.70;61.90;;;;;;5043064;28;19964;-45
2022/09/29 10:34:41;;;;;;;;;;;19.70;61.90;;;;;;5070437;28;19920;-47
2022/09/29 10:37:19;;;;;;;;;;;19.70;61.80;;;;;;5047632;28;19940;-44
2022/09/29 10:39:47;;;;;;;;;;;19.70;62.50;;;;;;5033656;28;20439;-40
2022/09/29 10:42:16;;;;;;;;;;;19.70;62.80;;;;;;5051133;28;19943;-44
2022/09/29 10:44:43;;;;;;;;;;;19.70;64.10;;;;;;5051765;28;19909;-41
2022/09/29 10:47:13;;;;;;;;;;;19.70;65.30;;;;;;5054662;28;19935;-45
2022/09/29 10:49:39;;;;;;;;;;;19.70;65.90;;;;;;5040672;28;19909;-41
2022/09/29 10:52:05;;;;;;;;;;;19.80;66.40;;;;;;5049488;28;20571;-48
2022/09/29 10:54:35;;;;;;;;;;;19.70;66.50;;;;;;5058116;28;20756;-52
2022/09/29 10:57:14;;;;;;;;;;;19.80;66.40;;;;;;5039369;28;19913;-42
2022/09/29 10:59:47;;;;;;;;;;;19.80;66.20;;;;;;5035864;28;19975;-41
2022/09/29 11:02:16;;;;;;;;;;;19.80;66.00;;;;;;5047276;28;19940;-41
2022/09/29 11:04:44;;;;;;;;;;;19.80;65.80;;;;;;5043955;28;19936;-41
2022/09/29 11:07:10;;;;;;;;;;;19.80;65.60;;;;;;5061407;28;19904;-42
2022/09/29 11:09:39;;;;;;;;;;;19.90;65.70;;;;;;5042232;28;19913;-41
2022/09/29 11:12:11;;;;;;;;;;;19.90;66.00;;;;;;5042584;28;19913;-41
2022/09/29 11:14:36;;;;;;;;;;;19.90;66.10;;;;;;5039619;28;20433;-42
2022/09/29 11:17:22;;;;;;;;;;;20.00;66.10;;;;;;5059120;28;19943;-41
2022/09/29 11:19:49;;;;;;;;;;;20.00;66.40;;;;;;5070078;28;19916;-41
2022/09/29 11:22:15;;;;;;;;;;;20.00;66.30;;;;;;5059987;28;19913;-41
2022/09/29 11:24:50;;;;;;;;;;;20.10;66.30;;;;;;5056939;28;19966;-41
2022/09/29 11:27:21;;;;;;;;;;;20.10;66.30;;;;;;5058838;28;19928;-42
2022/09/29 11:30:05;;;;;;;;;;;20.20;66.40;;;;;;5070994;28;19952;-46
2022/09/29 11:32:31;;;;;;;;;;;20.20;66.50;;;;;;5072780;28;19913;-41
2022/09/29 11:35:04;;;;;;;;;;;20.20;66.50;;;;;;5070149;28;19963;-42
2022/09/29 11:37:35;;;;;;;;;;;20.30;66.50;;;;;;5059588;28;19913;-42
2022/09/29 11:40:01;;;;;;;;;;;20.30;66.70;;;;;;5046860;28;19925;-40
2022/09/29 11:42:31;;;;;;;;;;;20.40;66.60;;;;;;5061419;28;19972;-41
2022/09/29 11:44:57;;;;;;;;;;;20.40;66.80;;;;;;5061168;28;19963;-42
2022/09/29 11:47:31;;;;;;;;;;;20.50;66.70;;;;;;5062022;28;19921;-41
2022/09/29 11:50:06;;;;;;;;;;;20.60;66.70;;;;;;5047008;28;19913;-42
2022/09/29 11:52:37;;;;;;;;;;;20.60;66.90;;;;;;5062374;28;19920;-42
2022/09/29 11:55:10;;;;;;;;;;;20.70;66.80;;;;;;5061668;28;20376;-42
2022/09/29 11:57:41;;;;;;;;;;;20.70;66.60;;;;;;5056522;28;19919;-42
2022/09/29 12:00:08;;;;;;;;;;;20.80;66.30;;;;;;5063664;28;19923;-42
2022/09/29 12:02:41;;;;;;;;;;;20.80;66.30;;;;;;5060100;28;19913;-42
2022/09/29 12:05:11;;;;;;;;;;;20.90;66.40;;;;;;5045219;28;20673;-42
2022/09/29 12:07:40;;;;;;;;;;;20.90;66.50;;;;;;5043262;28;19920;-44
2022/09/29 12:10:18;;;;;;;;;;;21.00;66.30;;;;;;5062020;28;19920;-43
2022/09/29 12:12:56;;;;;;;;;;;21.10;66.30;;;;;;5065806;28;19949;-42
2022/09/29 12:15:28;;;;;;;;;;;21.10;66.20;;;;;;5060968;28;19948;-42
2022/09/29 12:17:55;;;;;;;;;;;21.20;67.00;;;;;;5069105;28;19972;-42
2022/09/29 12:20:23;;;;;;;;;;;21.30;65.90;;;;;;5057025;28;19917;-41
2022/09/29 12:22:49;;;;;;;;;;;21.30;66.10;;;;;;5064562;28;19916;-42
2022/09/29 12:25:16;;;;;;;;;;;21.40;66.10;;;;;;5055362;28;19913;-42
2022/09/29 12:27:43;;;;;;;;;;;21.40;65.60;;;;;;5045261;28;19912;-42
2022/09/29 12:30:18;;;;;;;;;;;21.50;65.60;;;;;;5063449;28;20408;-42
2022/09/29 12:32:57;;;;;;;;;;;21.50;65.00;;;;;;5060457;28;19988;-41
2022/09/29 12:35:41;;;;;;;;;;;21.60;64.60;;;;;;5064277;28;20001;-42
2022/09/29 12:38:16;;;;;;;;;;;21.60;64.20;;;;;;5071494;28;19912;-43
2022/09/29 12:40:43;;;;;;;;;;;21.70;64.20;;;;;;5059619;28;19988;-43
2022/09/29 12:43:29;;;;;;;;;;;21.70;63.80;;;;;;5053830;28;19919;-41
2022/09/29 12:46:05;;;;;;;;;;;21.80;63.80;;;;;;5070227;28;20049;-44
2022/09/29 12:48:30;;;;;;;;;;;21.80;63.60;;;;;;5078204;28;19916;-43
2022/09/29 12:50:58;;;;;;;;;;;21.80;63.60;;;;;;5063485;28;19913;-43
2022/09/29 12:53:31;;;;;;;;;;;21.90;63.60;;;;;;5065640;28;19908;-42
2022/09/29 12:55:57;;;;;;;;;;;21.90;63.40;;;;;;5069046;28;19908;-42
2022/09/29 12:58:27;;;;;;;;;;;21.90;63.10;;;;;;5063904;28;19912;-42
2022/09/29 13:00:55;;;;;;;;;;;21.90;63.00;;;;;;5080556;28;19969;-42
2022/09/29 13:03:39;;;;;;;;;;;22.00;62.80;;;;;;5068820;28;19919;-42
2022/09/29 13:06:05;;;;;;;;;;;22.00;62.50;;;;;;5068421;28;19983;-43
2022/09/29 13:08:31;;;;;;;;;;;22.00;62.30;;;;;;5067701;28;19966;-43
2022/09/29 13:11:15;;;;;;;;;;;22.00;61.90;;;;;;5059149;28;19920;-43
2022/09/29 13:13:44;;;;;;;;;;;22.00;61.60;;;;;;5067912;28;19913;-44
2022/09/29 13:16:12;;;;;;;;;;;22.00;61.50;;;;;;5055205;28;20381;-42
2022/09/29 13:18:45;;;;;;;;;;;22.00;61.20;;;;;;5065334;28;19908;-43
2022/09/29 13:21:25;;;;;;;;;;;22.10;61.20;;;;;;5080974;28;20015;-44
2022/09/29 13:24:05;;;;;;;;;;;22.10;61.00;;;;;;5045877;28;19939;-43
2022/09/29 13:26:42;;;;;;;;;;;22.10;60.70;;;;;;5064426;28;19912;-44
2022/09/29 13:29:09;;;;;;;;;;;22.10;60.70;;;;;;5057953;28;19912;-40
2022/09/29 13:31:36;;;;;;;;;;;22.10;60.70;;;;;;5037663;28;20442;-44
2022/09/29 13:34:02;;;;;;;;;;;22.10;60.60;;;;;;5056754;28;19921;-45
2022/09/29 13:36:35;;;;;;;;;;;22.10;60.70;;;;;;5071054;28;19912;-42
2022/09/29 13:39:01;;;;;;;;;;;22.10;60.30;;;;;;5067713;28;20301;-46
2022/09/29 13:41:30;;;;;;;;;;;22.10;60.10;;;;;;5060759;28;19918;-43
2022/09/29 13:43:56;;;;;;;;;;;22.10;59.90;;;;;;5061283;28;19912;-46
2022/09/29 13:46:25;;;;;;;;;;;22.10;59.90;;;;;;5051411;28;19934;-43
2022/09/29 13:48:54;;;;;;;;;;;22.10;59.90;;;;;;5064212;28;19924;-47
2022/09/29 13:51:39;;;;;;;;;;;22.10;59.80;;;;;;5067466;28;20358;-41
2022/09/29 13:54:23;;;;;;;;;;;22.10;59.70;;;;;;5057614;28;19989;-45
2022/09/29 13:57:04;;;;;;;;;;;22.10;59.60;;;;;;5053052;28;19920;-43
2022/09/29 13:59:30;;;;;;;;;;;22.10;59.50;;;;;;5057553;28;19927;-43
2022/09/29 14:01:56;;;;;;;;;;;22.10;59.60;;;;;;5060565;28;19964;-43
2022/09/29 14:04:48;;;;;;;;;;;22.00;59.50;;;;;;5063026;28;19984;-43
2022/09/29 14:07:33;;;;;;;;;;;22.00;59.40;;;;;;5055617;28;19912;-44
2022/09/29 14:10:02;;;;;;;;;;;22.00;59.40;;;;;;5065108;28;20377;-44
2022/09/29 14:12:28;;;;;;;;;;;22.00;59.40;;;;;;5045345;28;19913;-44
2022/09/29 14:14:55;;;;;;;;;;;22.00;59.40;;;;;;5052356;28;19909;-43
2022/09/29 14:30:35;;;;;;;2.67;0.50;;;22.00;58.80;;;;;;5041845;28;20433;-59
2022/09/29 14:33:21;;;;;;;3.95;0.50;;;22.10;58.50;;;;;;5043975;28;20036;-59
2022/09/29 14:36:00;;;;;;;4.40;0.60;;;22.00;58.60;;;;;;5043643;28;20037;-59
2022/09/29 14:38:48;;;;;;;2.15;0.40;;;22.00;58.60;;;;;;5059154;28;20057;-59
2022/09/29 14:41:25;;;;;;;1.75;0.40;;;22.00;58.70;;;;;;5038014;28;20037;-58
2022/09/29 14:43:53;;;;;;;1.27;0.40;;;21.90;58.70;;;;;;5032108;28;20041;-58